Time;durP1;ratioP1;P1;durP2;ratioP2;P2;SDS_P1;SDS_P2;PMS_P1;PMS_P2;Temp;Humidity;BMP_temperature;BMP_pressure;BME280_temperature;BME280_humidity;BME280_pressure;Samples;Min_cycle;Max_cycle;Signal;HPM_P1;HPM_P2
2022/09/19 00:02:11;;;;;;;1.40;1.20;;;;;;;5.91;91.27;96984.96;109832;1247;59699;-67
2022/09/19 00:04:41;;;;;;;3.10;1.40;;;;;;;5.85;91.42;96980.48;110008;1247;59757;-69
2022/09/19 00:07:11;;;;;;;3.90;1.40;;;;;;;5.78;91.09;96972.44;110024;1247;70853;-67
2022/09/19 00:09:40;;;;;;;2.20;1.60;;;;;;;5.72;88.95;96971.39;109732;1247;68731;-68
2022/09/19 00:12:11;;;;;;;1.80;1.40;;;;;;;5.70;89.15;96976.39;109774;1247;69633;-70
2022/09/19 00:14:41;;;;;;;2.20;1.40;;;;;;;5.66;89.22;96975.38;109866;1248;59790;-68
2022/09/19 00:17:12;;;;;;;2.20;1.20;;;;;;;5.62;91.17;96976.63;110003;1248;59674;-68
2022/09/19 00:19:43;;;;;;;2.60;1.40;;;;;;;5.55;92.55;96983.45;109871;1249;69708;-68
2022/09/19 00:22:12;;;;;;;2.90;1.60;;;;;;;5.49;93.39;96984.88;109868;1249;69398;-67
2022/09/19 00:24:45;;;;;;;;;;;;;;;5.42;94.10;96984.58;109724;1247;69420;-66
2022/09/19 00:27:22;;;;;;;1.80;1.40;;;;;;;5.36;95.97;96988.05;109910;1248;60003;-68
2022/09/19 00:29:54;;;;;;;1.40;1.20;;;;;;;5.31;96.97;96985.77;109711;1250;59817;-70
2022/09/19 00:32:25;;;;;;;1.70;1.60;;;;;;;5.25;97.55;96979.88;109612;1251;70844;-67
2022/09/19 00:34:55;;;;;;;3.00;1.40;;;;;;;5.19;97.18;96980.21;109794;1247;68616;-68
2022/09/19 00:37:27;;;;;;;2.70;1.70;;;;;;;5.14;96.40;96982.78;109736;1247;69313;-67
2022/09/19 00:39:59;;;;;;;2.10;1.70;;;;;;;5.08;95.80;96985.52;109784;1249;59708;-68
2022/09/19 00:42:33;;;;;;;2.00;1.50;;;;;;;5.04;95.20;96988.00;109856;1249;59739;-70
2022/09/19 00:45:12;;;;;;;2.10;1.60;;;;;;;5.01;94.94;96988.16;109949;1248;71510;-69
2022/09/19 00:47:48;;;;;;;2.30;1.60;;;;;;;4.98;95.50;96992.64;109935;1246;69152;-67
2022/09/19 00:50:26;;;;;;;1.80;1.40;;;;;;;4.94;95.65;96990.11;109978;1247;68610;-68
2022/09/19 00:53:24;;;;;;;1.90;1.40;;;;;;;4.91;94.67;96990.66;109921;1247;59741;-68
2022/09/19 00:55:56;;;;;;;2.90;1.40;;;;;;;4.88;96.05;96995.45;109820;1251;59670;-67
2022/09/19 00:58:34;;;;;;;1.90;1.60;;;;;;;4.85;97.34;96996.67;109981;1248;71475;-69
2022/09/19 01:01:05;;;;;;;1.60;1.40;;;;;;;4.83;97.82;96998.70;109756;1248;68633;-68
2022/09/19 01:03:37;;;;;;;2.70;1.80;;;;;;;4.81;98.69;97003.48;109869;1248;68500;-69
2022/09/19 01:06:35;;;;;;;2.10;1.50;;;;;;;4.77;99.59;96998.02;109875;1247;59771;-69
2022/09/19 01:09:41;;;;;;;3.40;1.70;;;;;;;4.72;97.52;96992.57;109821;1249;59616;-69
2022/09/19 01:12:28;;;;;;;4.10;1.70;;;;;;;4.69;97.92;96996.70;109862;1251;71536;-71
2022/09/19 01:15:31;;;;;;;2.60;2.10;;;;;;;4.66;98.00;96995.67;109875;1247;69226;-67
2022/09/19 01:18:03;;;;;;;1.80;1.70;;;;;;;4.63;98.23;97002.94;109731;1249;69271;-68
2022/09/19 01:20:51;;;;;;;1.70;1.50;;;;;;;4.60;97.82;97004.43;109692;1247;59700;-68
2022/09/19 01:23:36;;;;;;;3.60;1.80;;;;;;;4.59;98.63;97010.02;109728;1248;59700;-68
2022/09/19 01:26:15;;;;;;;2.10;1.40;;;;;;;4.60;99.94;97018.11;109828;1248;70762;-68
2022/09/19 01:28:50;;;;;;;2.70;1.90;;;;;;;4.56;98.70;97007.43;109816;1249;69324;-70
2022/09/19 01:31:27;;;;;;;2.70;1.80;;;;;;;4.56;98.90;97008.48;109743;1247;69202;-68
2022/09/19 01:34:08;;;;;;;2.20;1.70;;;;;;;4.55;99.73;97004.39;109672;1247;59813;-70
2022/09/19 01:36:43;;;;;;;4.00;1.50;;;;;;;4.52;99.99;97003.88;110040;1247;59742;-68
2022/09/19 01:39:19;;;;;;;3.20;1.80;;;;;;;4.49;100.00;97002.48;109681;1247;70984;-69
2022/09/19 01:41:53;;;;;;;2.20;1.30;;;;;;;4.46;100.00;96999.21;109708;1247;68810;-68
2022/09/19 01:44:27;;;;;;;2.40;1.80;;;;;;;4.43;98.71;96999.17;109830;1248;67752;-67
2022/09/19 01:47:08;;;;;;;2.20;1.30;;;;;;;4.42;98.01;96999.21;109804;1248;59683;-67
2022/09/19 01:50:05;;;;;;;2.10;1.30;;;;;;;4.40;98.20;97001.23;109858;1247;59670;-67
2022/09/19 01:53:26;;;;;;;1.50;1.40;;;;;;;4.38;96.85;96998.23;109793;1249;70908;-68
2022/09/19 01:56:18;;;;;;;2.70;1.80;;;;;;;4.37;95.30;96997.09;107503;1249;2811810;-68
2022/09/19 01:58:55;;;;;;;3.70;1.90;;;;;;;4.40;94.97;97002.84;109851;1247;68536;-70
2022/09/19 02:01:34;;;;;;;2.90;1.80;;;;;;;4.41;96.07;97011.92;109800;1249;59681;-68
2022/09/19 02:04:18;;;;;;;1.90;1.50;;;;;;;4.39;97.19;97013.92;109804;1247;59696;-67
2022/09/19 02:07:09;;;;;;;3.10;1.70;;;;;;;4.36;97.22;97013.22;109726;1248;71537;-68
2022/09/19 02:09:52;;;;;;;;;;;;;;;4.31;98.67;97006.02;109700;1249;69247;-67
2022/09/19 02:12:27;;;;;;;2.80;1.60;;;;;;;4.26;99.03;97002.70;109897;1247;69278;-68
2022/09/19 02:15:03;;;;;;;1.80;1.60;;;;;;;4.23;98.71;96998.55;109784;1249;59688;-68
2022/09/19 02:17:50;;;;;;;3.20;1.90;;;;;;;4.20;98.35;97000.61;109868;1249;59694;-68
2022/09/19 02:20:42;;;;;;;2.00;1.30;;;;;;;4.18;97.64;97002.48;109824;1249;70788;-68
2022/09/19 02:23:24;;;;;;;2.40;1.50;;;;;;;4.17;97.49;97006.30;110055;1247;69253;-68
2022/09/19 02:25:58;;;;;;;3.30;2.10;;;;;;;4.17;98.83;97007.00;109800;1249;68545;-71
2022/09/19 02:28:41;;;;;;;2.30;1.50;;;;;;;4.19;100.00;97011.20;109855;1249;60179;-71
2022/09/19 02:31:19;;;;;;;2.80;1.70;;;;;;;4.19;99.98;97012.08;109950;1247;59682;-69
2022/09/19 02:33:51;;;;;;;2.40;1.60;;;;;;;4.21;100.00;97012.96;109744;1249;70935;-69
2022/09/19 02:36:34;;;;;;;;;;;;;;;4.25;100.00;97005.34;109910;1249;69018;-69
2022/09/19 02:39:28;;;;;;;3.80;2.10;;;;;;;4.31;100.00;96999.52;109678;1249;69228;-69
2022/09/19 02:42:27;;;;;;;2.80;1.90;;;;;;;4.39;100.00;97004.27;109631;1248;59694;-68
2022/09/19 02:45:07;;;;;;;2.00;1.60;;;;;;;4.44;100.00;97000.02;109704;1249;59731;-68
2022/09/19 02:47:54;;;;;;;1.90;1.50;;;;;;;4.49;100.00;96993.14;110059;1247;70747;-70
2022/09/19 02:50:40;;;;;;;3.20;2.10;;;;;;;4.54;100.00;96994.60;110038;1247;67868;-69
2022/09/19 02:53:21;;;;;;;2.40;1.70;;;;;;;4.63;100.00;96994.48;110035;1247;69712;-70
2022/09/19 02:55:57;;;;;;;4.20;2.20;;;;;;;4.68;100.00;96999.90;109775;1247;59692;-69
2022/09/19 02:58:31;;;;;;;2.10;1.70;;;;;;;4.76;100.00;96998.77;109646;1249;60181;-70
2022/09/19 03:01:08;;;;;;;3.00;1.80;;;;;;;4.80;100.00;97000.39;109706;1250;69736;-68
2022/09/19 03:06:57;;;;;;;1.90;1.50;;;;;;;4.88;100.00;97003.62;109752;1249;68961;-69
2022/09/19 03:09:30;;;;;;;1.50;1.10;;;;;;;4.90;100.00;97004.66;109707;1249;59748;-69
2022/09/19 03:12:18;;;;;;;2.70;1.80;;;;;;;4.93;98.37;97001.23;109790;1248;59682;-70
2022/09/19 03:14:56;;;;;;;3.40;2.50;;;;;;;4.96;97.26;96999.36;109752;1249;71334;-69
2022/09/19 03:17:35;;;;;;;3.20;2.10;;;;;;;4.97;98.64;97004.44;109686;1251;68979;-68
2022/09/19 03:20:11;;;;;;;2.50;2.30;;;;;;;5.00;100.00;97019.52;109782;1250;69362;-70
2022/09/19 03:22:45;;;;;;;2.20;1.50;;;;;;;5.04;100.00;97015.48;109844;1249;59771;-69
2022/09/19 03:25:15;;;;;;;2.60;2.10;;;;;;;5.06;99.99;97014.83;109811;1249;59741;-70
2022/09/19 03:27:49;;;;;;;2.80;2.10;;;;;;;5.10;100.00;97010.63;109901;1249;70857;-70
2022/09/19 03:30:19;;;;;;;2.40;1.60;;;;;;;5.15;100.00;97005.89;109816;1249;69456;-70
2022/09/19 03:32:49;;;;;;;3.70;2.00;;;;;;;5.19;100.00;97010.46;109827;1249;68608;-70
2022/09/19 03:35:20;;;;;;;4.30;2.30;;;;;;;5.25;100.00;97011.50;109866;1248;59682;-70
2022/09/19 03:37:51;;;;;;;3.30;1.80;;;;;;;5.29;100.00;97012.82;109826;1250;59756;-67
2022/09/19 03:40:22;;;;;;;2.20;1.50;;;;;;;5.32;100.00;97014.00;109908;1249;71682;-67
2022/09/19 03:42:53;;;;;;;;;;;;;;;5.36;100.00;97013.11;109789;1251;69819;-68
2022/09/19 03:45:24;;;;;;;2.20;1.80;;;;;;;5.40;100.00;97010.27;109586;1251;69410;-69
2022/09/19 03:47:54;;;;;;;2.90;1.60;;;;;;;5.43;100.00;97005.27;109672;1249;59775;-70
2022/09/19 03:50:24;;;;;;;2.40;1.70;;;;;;;5.47;100.00;96998.45;109779;1249;59764;-67
2022/09/19 03:53:11;;;;;;;2.90;1.60;;;;;;;5.50;100.00;97000.73;109809;1249;70870;-68
2022/09/19 03:55:41;;;;;;;2.70;1.30;;;;;;;5.51;100.00;96998.37;109800;1250;69447;-67
2022/09/19 03:58:16;;;;;;;3.70;1.70;;;;;;;5.54;100.00;96998.23;110157;1248;68581;-67
2022/09/19 04:00:46;;;;;;;1.70;1.30;;;;;;;5.56;100.00;97000.69;109771;1249;59893;-68
2022/09/19 04:03:20;;;;;;;1.80;1.50;;;;;;;5.57;100.00;97000.09;110079;1250;59681;-69
2022/09/19 04:05:53;;;;;;;2.90;1.60;;;;;;;5.58;100.00;96996.73;109865;1249;70749;-70
2022/09/19 04:08:24;;;;;;;1.90;1.50;;;;;;;5.59;100.00;96990.82;110061;1248;68630;-69
2022/09/19 04:10:53;;;;;;;2.50;1.70;;;;;;;5.59;100.00;96987.38;109832;1248;69252;-69
2022/09/19 04:13:22;;;;;;;2.70;1.60;;;;;;;5.58;100.00;96985.17;109971;1247;59759;-68
2022/09/19 04:15:54;;;;;;;2.40;1.50;;;;;;;5.60;100.00;96991.31;110125;1247;59684;-67
2022/09/19 04:18:23;;;;;;;2.30;1.40;;;;;;;5.61;100.00;96994.33;109829;1249;70653;-68
2022/09/19 04:20:56;;;;;;;2.40;1.60;;;;;;;5.61;99.96;96992.59;109902;1248;69443;-68
2022/09/19 04:24:06;;;;;;;3.60;1.90;;;;;;;5.64;100.00;96990.02;109642;1247;68617;-69
2022/09/19 04:27:02;;;;;;;3.20;1.70;;;;;;;5.68;100.00;96991.36;109704;1247;59673;-67
2022/09/19 04:29:31;;;;;;;2.20;1.90;;;;;;;5.71;100.00;96988.26;109933;1247;59681;-69
2022/09/19 04:32:03;;;;;;;3.40;2.40;;;;;;;5.74;100.00;96981.48;110084;1247;71522;-68
2022/09/19 04:34:34;;;;;;;2.80;2.10;;;;;;;5.80;100.00;96979.41;109960;1248;68613;-68
2022/09/19 04:37:06;;;;;;;2.40;1.90;;;;;;;5.88;100.00;96982.86;109874;1249;69480;-69
2022/09/19 04:39:37;;;;;;;4.10;2.60;;;;;;;5.98;100.00;96981.74;110035;1247;59698;-68
2022/09/19 04:42:08;;;;;;;3.20;2.30;;;;;;;6.10;100.00;96986.59;109764;1248;59725;-68
2022/09/19 04:44:38;;;;;;;3.20;2.00;;;;;;;6.19;100.00;96986.39;109788;1248;72144;-68
2022/09/19 04:47:14;;;;;;;2.50;2.00;;;;;;;6.27;100.00;96998.30;109673;1247;70140;-67
2022/09/19 04:49:44;;;;;;;2.60;1.70;;;;;;;6.32;99.98;97005.27;109764;1248;70486;-68
2022/09/19 04:52:13;;;;;;;2.10;1.40;;;;;;;6.38;99.72;97007.88;109845;1247;59738;-68
2022/09/19 04:54:47;;;;;;;2.30;1.10;;;;;;;6.48;99.62;97010.33;109872;1247;59702;-68
2022/09/19 04:57:18;;;;;;;1.50;1.20;;;;;;;6.67;99.34;97020.41;109907;1247;71438;-68
2022/09/19 04:59:47;;;;;;;1.70;1.60;;;;;;;6.82;98.43;97022.41;109816;1250;68454;-67
2022/09/19 05:02:20;;;;;;;2.10;1.20;;;;;;;6.97;97.62;97028.23;109723;1248;67818;-68
2022/09/19 05:04:51;;;;;;;2.30;1.90;;;;;;;7.09;96.87;97032.96;109865;1247;59774;-68
2022/09/19 05:07:21;;;;;;;2.80;2.00;;;;;;;7.21;96.28;97032.52;109745;1247;59694;-67
2022/09/19 05:09:50;;;;;;;3.90;2.70;;;;;;;7.35;96.69;97031.27;109653;1251;71454;-68
2022/09/19 05:12:19;;;;;;;4.70;4.00;;;;;;;7.44;95.80;97036.38;109719;1248;68720;-68
2022/09/19 05:14:51;;;;;;;4.80;3.90;;;;;;;7.51;95.77;97037.33;109637;1249;69586;-68
2022/09/19 05:17:21;;;;;;;4.50;3.80;;;;;;;7.53;95.08;97039.98;109866;1248;59751;-68
2022/09/19 05:19:50;;;;;;;5.00;4.30;;;;;;;7.60;95.46;97035.68;109764;1247;59738;-68
2022/09/19 05:22:20;;;;;;;5.60;3.80;;;;;;;7.70;95.36;97029.48;109931;1249;71594;-67
2022/09/19 05:24:49;;;;;;;3.90;3.30;;;;;;;7.81;95.52;97026.47;109750;1249;69301;-68
2022/09/19 05:27:19;;;;;;;4.20;3.40;;;;;;;7.93;95.48;97020.58;109708;1248;68636;-67
2022/09/19 05:29:49;;;;;;;5.30;3.80;;;;;;;8.05;94.93;97013.87;109774;1248;59693;-67
2022/09/19 05:32:21;;;;;;;4.50;4.10;;;;;;;8.15;95.17;97014.90;109849;1248;59718;-67
2022/09/19 05:35:07;;;;;;;4.50;3.20;;;;;;;8.27;94.25;97016.89;109749;1250;70769;-69
2022/09/19 05:37:59;;;;;;;4.00;2.50;;;;;;;8.45;89.09;97012.49;110002;1248;69615;-68
2022/09/19 05:40:40;;;;;;;2.60;1.80;;;;;;;8.69;87.21;97013.06;110559;1251;69228;-69
2022/09/19 05:43:23;;;;;;;4.50;2.90;;;;;;;8.88;87.16;97028.89;110014;1248;59758;-69
2022/09/19 05:45:54;;;;;;;3.00;2.40;;;;;;;8.97;87.11;97040.65;109702;1251;59614;-69
2022/09/19 05:48:25;;;;;;;3.70;1.90;;;;;;;9.08;87.26;97044.67;109854;1249;72107;-67
2022/09/19 05:50:55;;;;;;;3.80;1.70;;;;;;;9.11;84.44;97041.62;109739;1251;69360;-65
2022/09/19 05:56:36;;;;;;;2.00;1.50;;;;;;;9.31;85.67;97047.49;109741;1247;59699;-67
2022/09/19 05:59:08;;;;;;;1.30;1.20;;;;;;;9.38;83.32;97044.94;109567;1251;59699;-67
2022/09/19 06:01:39;;;;;;;1.90;1.50;;;;;;;9.43;83.62;97041.21;109655;1249;70975;-68
2022/09/19 06:04:10;;;;;;;2.10;1.60;;;;;;;9.49;85.02;97044.95;109630;1251;68634;-68
2022/09/19 06:06:43;;;;;;;3.10;1.90;;;;;;;9.53;84.80;97046.08;109608;1249;69246;-68
2022/09/19 06:09:18;;;;;;;2.70;1.70;;;;;;;9.61;85.86;97042.15;109608;1250;59800;-68
2022/09/19 06:11:58;;;;;;;3.40;2.00;;;;;;;9.70;83.30;97047.06;109658;1249;59734;-67
2022/09/19 06:14:27;;;;;;;2.90;1.80;;;;;;;9.77;80.56;97048.64;109823;1249;71513;-67
2022/09/19 06:16:56;;;;;;;2.30;1.60;;;;;;;9.94;80.52;97043.14;109755;1249;68781;-70
2022/09/19 06:19:50;;;;;;;3.60;2.10;;;;;;;10.19;83.37;97042.08;109744;1249;68593;-70
2022/09/19 06:22:27;;;;;;;2.50;1.90;;;;;;;10.38;80.20;97039.30;109679;1249;59759;-70
2022/09/19 06:25:06;;;;;;;4.50;3.00;;;;;;;10.58;82.47;97048.73;109711;1251;59787;-69
2022/09/19 06:27:46;;;;;;;3.20;2.50;;;;;;;10.63;78.38;97051.63;110084;1249;71593;-70
2022/09/19 06:30:16;;;;;;;3.40;2.50;;;;;;;10.72;80.90;97054.71;109928;1251;69864;-69
2022/09/19 06:33:05;;;;;;;3.20;2.10;;;;;;;10.79;79.35;97050.50;109770;1249;69516;-70
2022/09/19 06:35:43;;;;;;;2.70;1.90;;;;;;;10.95;80.14;97050.48;109844;1249;59816;-69
2022/09/19 06:38:12;;;;;;;3.10;1.60;;;;;;;11.14;80.98;97050.30;109806;1249;59753;-69
2022/09/19 06:40:43;;;;;;;3.60;1.80;;;;;;;11.32;80.59;97050.23;109771;1249;71577;-70
2022/09/19 06:43:39;;;;;;;2.30;1.30;;;;;;;11.50;78.12;97044.41;109739;1249;68959;-71
2022/09/19 06:46:27;;;;;;;1.60;1.20;;;;;;;11.71;77.81;97047.56;109960;1249;67612;-71
2022/09/19 06:49:10;;;;;;;2.80;1.50;;;;;;;11.92;76.25;97048.30;109636;1251;59702;-72
2022/09/19 06:51:50;;;;;;;4.00;1.70;;;;;;;12.03;74.23;97044.05;109890;1249;60151;-69
2022/09/19 06:54:21;;;;;;;3.70;2.00;;;;;;;12.02;73.65;97043.40;109856;1249;71878;-68
2022/09/19 06:56:52;;;;;;;1.60;1.10;;;;;;;12.14;73.93;97036.79;109730;1249;69416;-69
2022/09/19 06:59:21;;;;;;;0.90;0.80;;;;;;;12.55;72.07;97036.10;109796;1248;69786;-70
2022/09/19 07:01:50;;;;;;;1.50;1.30;;;;;;;13.00;67.17;97032.98;109797;1247;59753;-69
2022/09/19 07:04:20;;;;;;;2.30;1.10;;;;;;;13.49;68.20;97039.55;109747;1250;59698;-69
2022/09/19 07:07:09;;;;;;;1.20;0.90;;;;;;;14.02;67.65;97048.17;109580;1249;70994;-70
2022/09/19 07:09:47;;;;;;;1.40;0.70;;;;;;;14.51;64.58;97054.30;109660;1249;68868;-69
2022/09/19 07:12:16;;;;;;;1.30;0.80;;;;;;;14.85;59.77;97051.25;109614;1251;69831;-69
2022/09/19 07:14:50;;;;;;;1.20;0.90;;;;;;;15.21;57.70;97059.84;109916;1248;59751;-68
2022/09/19 07:17:24;;;;;;;1.60;0.80;;;;;;;15.53;58.76;97066.44;109884;1249;59693;-69
2022/09/19 07:19:53;;;;;;;2.10;0.70;;;;;;;15.90;57.86;97073.16;109797;1249;71642;-69
2022/09/19 07:22:41;;;;;;;2.00;0.80;;;;;;;16.05;56.30;97071.79;109772;1247;68746;-70
2022/09/19 07:25:44;;;;;;;2.20;0.90;;;;;;;16.31;55.39;97069.48;109771;1249;68787;-68
2022/09/19 07:28:16;;;;;;;1.00;0.90;;;;;;;16.55;55.76;97069.70;109778;1248;60205;-69
2022/09/19 07:30:46;;;;;;;1.30;0.90;;;;;;;16.70;54.23;97066.72;109718;1248;59816;-72
2022/09/19 07:33:23;;;;;;;1.10;0.80;;;;;;;16.95;53.58;97065.45;109795;1247;70937;-68
2022/09/19 07:35:54;;;;;;;1.90;0.90;;;;;;;16.84;50.60;97063.91;109892;1248;69527;-71
2022/09/19 07:38:26;;;;;;;1.30;0.70;;;;;;;16.75;52.56;97060.64;109676;1250;69006;-68
2022/09/19 07:41:07;;;;;;;1.80;1.00;;;;;;;16.99;52.85;97058.47;109715;1250;59743;-69
2022/09/19 07:43:41;;;;;;;1.50;0.80;;;;;;;17.58;51.01;97063.30;109725;1249;59633;-69
2022/09/19 07:46:28;;;;;;;1.10;0.60;;;;;;;18.00;49.05;97059.75;109684;1251;71874;-67
2022/09/19 07:49:12;;;;;;;1.20;0.70;;;;;;;18.79;49.18;97056.85;110028;1248;68672;-70
2022/09/19 07:51:53;;;;;;;1.10;0.80;;;;;;;18.94;46.38;97049.31;109930;1248;69136;-67
2022/09/19 07:54:22;;;;;;;1.60;1.00;;;;;;;18.14;46.95;97052.38;110149;1249;59768;-67
2022/09/19 07:56:51;;;;;;;1.40;0.60;;;;;;;18.03;46.82;97045.70;109826;1248;59788;-70
2022/09/19 07:59:19;;;;;;;1.40;0.70;;;;;;;17.87;48.13;97044.92;110271;1247;72081;-67
2022/09/19 08:01:56;;;;;;;1.10;0.60;;;;;;;17.76;48.41;97044.58;109833;1249;69451;-70
2022/09/19 08:04:36;;;;;;;1.10;0.60;;;;;;;17.55;48.22;97042.93;109841;1248;68668;-67
2022/09/19 08:07:06;;;;;;;1.50;0.70;;;;;;;17.43;47.03;97040.52;109899;1247;59703;-68
2022/09/19 08:09:35;;;;;;;1.50;0.70;;;;;;;17.25;47.87;97043.26;109868;1249;59758;-67
2022/09/19 08:12:09;;;;;;;0.80;0.60;;;;;;;16.80;49.50;97046.37;109977;1249;71780;-68
2022/09/19 08:14:41;;;;;;;0.70;0.60;;;;;;;16.50;49.62;97044.77;109954;1248;69387;-67
2022/09/19 08:17:10;;;;;;;0.50;0.50;;;;;;;15.96;50.19;97045.29;109797;1247;68653;-69
2022/09/19 08:19:39;;;;;;;1.80;0.80;;;;;;;15.54;51.60;97040.83;110014;1248;59732;-68
2022/09/19 08:22:09;;;;;;;0.90;0.70;;;;;;;14.57;54.71;97043.66;109751;1248;59762;-67
2022/09/19 08:24:45;;;;;;;1.70;0.70;;;;;;;14.50;55.40;97041.21;109862;1247;70762;-68
2022/09/19 08:27:15;;;;;;;1.00;0.70;;;;;;;14.51;55.47;97041.85;109760;1248;68633;-67
2022/09/19 08:29:45;;;;;;;2.00;0.90;;;;;;;14.37;55.64;97047.52;109727;1249;68663;-68
2022/09/19 08:32:16;;;;;;;1.70;0.70;;;;;;;14.20;55.47;97041.40;109841;1249;59681;-67
2022/09/19 08:34:45;;;;;;;0.80;0.80;;;;;;;14.30;55.47;97039.56;109947;1250;60141;-69
2022/09/19 08:37:15;;;;;;;4.10;1.10;;;;;;;14.59;55.90;97038.14;109970;1249;69862;-67
2022/09/19 08:40:15;;;;;;;2.80;1.00;;;;;;;14.75;53.88;97042.88;109885;1249;68716;-67
2022/09/19 08:43:10;;;;;;;2.00;1.10;;;;;;;15.00;53.55;97041.33;109701;1247;69452;-67
2022/09/19 08:46:14;;;;;;;1.60;0.90;;;;;;;15.10;53.31;97037.05;109694;1249;59682;-68
2022/09/19 08:49:05;;;;;;;2.90;0.80;;;;;;;15.29;53.93;97038.36;109838;1249;59692;-67
2022/09/19 08:51:58;;;;;;;1.40;0.90;;;;;;;15.32;52.12;97040.20;109825;1247;71193;-68
2022/09/19 08:54:40;;;;;;;1.40;1.00;;;;;;;15.67;52.52;97034.63;109552;1250;68581;-70
2022/09/19 08:57:27;;;;;;;1.50;0.80;;;;;;;15.95;51.44;97030.84;109934;1249;69524;-69
2022/09/19 09:00:19;;;;;;;1.90;1.00;;;;;;;15.81;50.64;97033.10;110480;1247;59742;-67
2022/09/19 09:03:01;;;;;;;0.60;0.60;;;;;;;16.01;50.81;97034.04;110087;1249;59638;-69
2022/09/19 09:05:48;;;;;;;0.80;0.70;;;;;;;15.93;51.14;97032.25;109989;1248;72162;-69
2022/09/19 09:08:47;;;;;;;0.90;0.60;;;;;;;15.90;50.59;97028.38;109898;1249;69356;-72
2022/09/19 09:11:49;;;;;;;0.50;0.50;;;;;;;15.63;49.60;97027.34;109909;1248;69470;-72
2022/09/19 09:14:29;;;;;;;0.40;0.40;;;;;;;15.03;49.88;97033.91;109935;1249;59688;-71
2022/09/19 09:17:29;;;;;;;0.40;0.40;;;;;;;15.00;50.41;97029.40;110018;1248;59631;-69
2022/09/19 09:20:52;;;;;;;0.40;0.40;;;;;;;14.78;51.49;97029.83;110015;1248;71834;-70
2022/09/19 09:23:26;;;;;;;1.40;0.60;;;;;;;14.69;52.69;97032.73;109601;1251;70020;-69
2022/09/19 09:26:14;;;;;;;0.70;0.70;;;;;;;14.32;52.94;97036.44;109974;1249;69802;-68
2022/09/19 09:29:00;;;;;;;0.50;0.50;;;;;;;14.09;53.22;97040.30;109885;1249;59836;-70
2022/09/19 09:31:56;;;;;;;0.80;0.60;;;;;;;14.12;54.17;97040.97;110130;1247;59740;-67
2022/09/19 09:34:48;;;;;;;0.90;0.60;;;;;;;14.31;53.65;97037.25;110106;1249;70745;-69
2022/09/19 09:37:23;;;;;;;1.60;0.60;;;;;;;14.48;54.69;97039.63;109888;1247;68478;-68
2022/09/19 09:43:20;;;;;;;0.90;0.60;;;;;;;14.67;53.33;97038.71;109841;1249;59763;-67
2022/09/19 09:45:52;;;;;;;1.40;0.50;;;;;;;14.70;52.63;97039.33;109891;1247;59631;-69
2022/09/19 09:48:34;;;;;;;0.90;0.50;;;;;;;14.69;52.85;97038.36;109827;1249;70874;-71
2022/09/19 09:51:43;;;;;;;0.70;0.60;;;;;;;14.93;53.18;97037.68;109772;1249;69690;-67
2022/09/19 09:57:40;;;;;;;0.90;0.40;;;;;;;14.53;52.70;97034.65;109800;1247;59716;-69
2022/09/19 10:03:49;;;;;;;1.20;0.40;;;;;;;14.17;52.58;97033.75;109933;1249;70783;-69
2022/09/19 10:06:38;;;;;;;0.90;0.60;;;;;;;14.30;52.91;97038.70;110235;1249;68622;-69
2022/09/19 10:09:16;;;;;;;0.40;0.40;;;;;;;14.44;52.15;97036.34;109842;1249;69532;-70
2022/09/19 10:11:56;;;;;;;0.60;0.50;;;;;;;14.62;52.26;97029.82;109995;1250;59634;-71
2022/09/19 10:14:47;;;;;;;1.40;0.50;;;;;;;15.03;51.99;97026.11;109942;1248;59742;-70
2022/09/19 10:18:06;;;;;;;1.70;0.70;;;;;;;15.50;51.15;97030.36;109815;1250;71009;-70
2022/09/19 10:20:51;;;;;;;0.60;0.60;;;;;;;15.88;47.85;97028.52;109923;1247;69169;-69
2022/09/19 10:23:30;;;;;;;1.10;0.50;;;;;;;15.99;47.50;97020.25;109862;1249;69493;-69
2022/09/19 10:26:15;;;;;;;1.20;0.80;;;;;;;16.20;48.19;97019.52;109735;1249;59822;-69
2022/09/19 10:28:52;;;;;;;0.70;0.60;;;;;;;16.30;47.88;97022.09;109962;1248;59676;-68
2022/09/19 10:31:41;;;;;;;0.90;0.40;;;;;;;16.34;47.83;97021.05;109790;1248;71289;-68
2022/09/19 10:34:32;;;;;;;0.50;0.50;;;;;;;16.23;47.57;97026.56;110033;1248;68567;-67
2022/09/19 10:37:28;;;;;;;0.70;0.40;;;;;;;16.13;48.26;97027.27;109912;1248;68843;-70
2022/09/19 10:40:02;;;;;;;0.50;0.50;;;;;;;16.06;47.46;97023.55;109872;1247;59688;-70
2022/09/19 10:42:42;;;;;;;0.70;0.40;;;;;;;16.04;47.50;97018.30;109829;1249;59692;-66
2022/09/19 10:45:25;;;;;;;0.40;0.30;;;;;;;15.93;48.50;97023.66;109960;1247;72016;-70
2022/09/19 10:48:13;;;;;;;0.50;0.50;;;;;;;15.62;48.91;97025.84;109862;1249;68647;-70
2022/09/19 10:50:46;;;;;;;0.40;0.40;;;;;;;15.27;50.23;97028.20;109908;1249;68645;-68
2022/09/19 10:53:26;;;;;;;1.00;0.60;;;;;;;15.24;50.28;97024.84;109953;1248;59663;-70
2022/09/19 10:56:00;;;;;;;0.60;0.50;;;;;;;15.28;50.61;97023.34;109884;1249;59769;-68
2022/09/19 10:58:37;;;;;;;0.40;0.40;;;;;;;15.17;51.97;97022.36;109834;1249;71749;-70
2022/09/19 11:01:23;;;;;;;0.50;0.40;;;;;;;15.19;51.26;97024.60;110092;1248;69386;-68
2022/09/19 11:04:10;;;;;;;1.20;0.50;;;;;;;15.23;50.19;97024.78;109840;1249;69412;-70
2022/09/19 11:07:16;;;;;;;1.30;0.50;;;;;;;15.01;50.55;97026.16;109934;1249;59791;-69
2022/09/19 11:09:53;;;;;;;0.50;0.40;;;;;;;14.71;51.06;97022.42;110303;1249;60118;-67
2022/09/19 11:12:23;;;;;;;0.40;0.40;;;;;;;14.55;49.98;97025.31;109869;1248;71744;-70
2022/09/19 11:14:55;;;;;;;1.10;0.40;;;;;;;14.32;49.60;97026.59;110057;1248;69386;-70
2022/09/19 11:17:33;;;;;;;1.40;0.80;;;;;;;14.03;50.79;97023.74;109973;1249;67929;-70
2022/09/19 11:20:17;;;;;;;1.40;0.60;;;;;;;14.13;50.31;97023.63;109739;1249;59710;-66
2022/09/19 11:23:18;;;;;;;0.70;0.50;;;;;;;13.92;51.17;97022.52;109821;1249;59692;-66
2022/09/19 11:26:00;;;;;;;0.80;0.70;;;;;;;13.81;52.11;97023.66;109744;1249;72232;-67
2022/09/19 11:28:52;;;;;;;0.70;0.50;;;;;;;13.76;52.61;97024.76;109699;1249;69309;-68
2022/09/19 11:31:47;;;;;;;0.90;0.60;;;;;;;13.84;53.00;97021.08;109862;1249;67873;-69
2022/09/19 11:34:46;;;;;;;0.40;0.40;;;;;;;13.83;54.50;97026.95;109892;1247;59748;-67
2022/09/19 11:37:41;;;;;;;1.90;0.70;;;;;;;13.62;56.60;97029.11;109723;1248;59632;-66
2022/09/19 11:40:25;;;;;;;0.60;0.50;;;;;;;13.53;57.54;97027.41;110001;1250;71524;-69
2022/09/19 11:43:00;;;;;;;0.60;0.60;;;;;;;13.40;59.41;97027.04;110078;1248;70044;-69
2022/09/19 11:45:56;;;;;;;0.60;0.50;;;;;;;13.35;59.44;97023.61;109819;1249;68983;-68
2022/09/19 11:48:33;;;;;;;0.90;0.60;;;;;;;13.33;60.30;97030.67;109717;1249;59773;-68
2022/09/19 11:51:17;;;;;;;1.70;0.80;;;;;;;13.21;61.43;97029.05;109806;1248;59645;-69
2022/09/19 11:54:48;;;;;;;1.00;0.70;;;;;;;13.22;61.64;97025.79;109837;1249;70799;-69
2022/09/19 11:57:41;;;;;;;0.70;0.70;;;;;;;13.31;59.44;97020.67;109353;1257;68896;-70
2022/09/19 12:00:21;;;;;;;2.30;0.60;;;;;;;13.19;59.32;97029.98;109857;1249;68873;-71
2022/09/19 12:03:10;;;;;;;1.00;0.80;;;;;;;13.09;60.62;97029.95;110017;1248;59708;-68
2022/09/19 12:06:07;;;;;;;1.00;0.70;;;;;;;13.24;58.68;97033.58;109780;1250;59760;-68
2022/09/19 12:08:55;;;;;;;0.50;0.50;;;;;;;13.22;59.31;97033.89;110014;1248;71645;-67
2022/09/19 12:11:45;;;;;;;0.70;0.60;;;;;;;13.24;59.30;97031.55;109880;1248;68591;-70
2022/09/19 12:14:31;;;;;;;0.90;0.70;;;;;;;13.31;58.51;97040.80;110461;1248;68678;-70
2022/09/19 12:17:13;;;;;;;1.70;0.70;;;;;;;13.18;57.52;97040.02;109791;1250;59726;-69
2022/09/19 12:19:57;;;;;;;1.10;0.70;;;;;;;13.20;57.92;97045.77;109775;1249;59748;-70
2022/09/19 12:22:29;;;;;;;1.10;0.70;;;;;;;13.19;58.04;97041.50;109846;1249;71525;-67
2022/09/19 12:25:01;;;;;;;0.70;0.70;;;;;;;13.30;58.58;97045.77;109943;1250;69416;-69
2022/09/19 12:27:46;;;;;;;0.90;0.60;;;;;;;13.28;57.54;97042.67;110008;1247;69562;-70
2022/09/19 12:30:18;;;;;;;1.10;0.70;;;;;;;13.34;57.46;97040.54;110177;1248;59673;-68
2022/09/19 12:33:18;;;;;;;1.10;0.60;;;;;;;13.38;57.72;97038.60;109947;1249;59739;-68
2022/09/19 12:35:58;;;;;;;1.30;0.60;;;;;;;13.58;56.78;97032.05;109712;1250;70831;-69
2022/09/19 12:38:32;;;;;;;0.60;0.60;;;;;;;13.70;56.28;97032.41;110091;1247;68777;-68
2022/09/19 12:41:24;;;;;;;1.00;0.60;;;;;;;13.66;57.71;97030.75;109925;1249;69544;-67
2022/09/19 12:44:04;;;;;;;0.70;0.70;;;;;;;13.72;61.74;97029.07;109858;1248;59724;-68